Time;durP1;ratioP1;P1;durP2;ratioP2;P2;SDS_P1;SDS_P2;PMS_P1;PMS_P2;Temp;Humidity;BMP_temperature;BMP_pressure;BME280_temperature;BME280_humidity;BME280_pressure;Samples;Min_cycle;Max_cycle;Signal;HPM_P1;HPM_P2
2021/01/25 00:01:35;;;;;;;1.70;1.60;;;1.20;1.00;;;;;;5055320;28;20515;-76
2021/01/25 00:04:02;;;;;;;2.10;1.83;;;1.30;1.00;;;;;;5060877;28;20246;-76
2021/01/25 00:06:32;;;;;;;1.38;1.35;;;1.10;1.00;;;;;;5048272;28;20221;-76
2021/01/25 00:08:59;;;;;;;1.98;1.30;;;0.80;1.00;;;;;;5044927;28;20205;-76
2021/01/25 00:11:26;;;;;;;1.98;1.50;;;0.80;1.00;;;;;;5051201;28;20244;-76
2021/01/25 00:13:53;;;;;;;2.70;1.50;;;0.70;1.00;;;;;;5056357;28;20208;-76
2021/01/25 00:16:20;;;;;;;2.75;1.52;;;0.60;1.00;;;;;;5046618;28;20646;-76
2021/01/25 00:18:48;;;;;;;1.85;1.50;;;0.50;1.00;;;;;;5055797;28;20225;-76
2021/01/25 00:21:17;;;;;;;4.30;2.95;;;0.40;1.00;;;;;;5050465;28;20782;-76
2021/01/25 00:23:46;;;;;;;2.25;1.85;;;0.40;1.00;;;;;;5049501;28;20686;-76
2021/01/25 00:26:13;;;;;;;3.75;1.63;;;0.30;1.00;;;;;;5059282;28;20457;-76
2021/01/25 00:28:40;;;;;;;2.97;1.83;;;0.40;1.00;;;;;;5050030;28;20208;-76
2021/01/25 00:31:07;;;;;;;1.75;1.50;;;0.40;1.00;;;;;;5053607;28;20234;-75
2021/01/25 00:33:34;;;;;;;1.70;1.60;;;0.30;1.00;;;;;;5059110;28;20211;-76
2021/01/25 00:36:02;;;;;;;1.92;1.73;;;0.40;1.00;;;;;;5056130;28;20231;-75
2021/01/25 00:38:29;;;;;;;1.65;1.55;;;0.40;1.00;;;;;;5048057;28;20313;-75
2021/01/25 00:40:57;;;;;;;1.45;1.35;;;0.50;1.00;;;;;;5062136;28;20208;-76
2021/01/25 00:43:24;;;;;;;2.65;1.50;;;0.60;1.00;;;;;;5048478;28;20220;-76
2021/01/25 00:45:51;;;;;;;2.47;1.50;;;0.70;1.00;;;;;;5057339;28;20247;-75
2021/01/25 00:48:18;;;;;;;1.90;1.80;;;1.00;1.00;;;;;;5057787;28;20755;-75
2021/01/25 00:50:46;;;;;;;1.60;1.38;;;1.20;1.00;;;;;;5051389;28;20212;-75
2021/01/25 00:53:13;;;;;;;1.88;1.50;;;1.40;1.00;;;;;;5053788;28;20202;-75
2021/01/25 00:55:40;;;;;;;1.63;1.30;;;1.40;1.00;;;;;;5051013;28;20205;-76
2021/01/25 00:58:08;;;;;;;1.80;1.48;;;1.40;1.00;;;;;;5063687;28;20233;-75
2021/01/25 01:00:35;;;;;;;1.70;1.60;;;1.30;1.00;;;;;;5051008;28;20217;-75
2021/01/25 01:03:03;;;;;;;2.05;1.60;;;1.20;1.00;;;;;;5053757;28;20261;-75
2021/01/25 01:05:31;;;;;;;1.85;1.70;;;1.30;1.00;;;;;;5053864;28;20208;-75
2021/01/25 01:07:58;;;;;;;2.03;1.63;;;1.10;1.00;;;;;;5055245;28;20208;-75
2021/01/25 01:10:25;;;;;;;2.47;1.50;;;0.90;1.00;;;;;;5053234;28;20220;-75
2021/01/25 01:12:52;;;;;;;2.03;1.70;;;0.90;1.00;;;;;;5050415;28;20228;-76
2021/01/25 01:15:20;;;;;;;1.85;1.30;;;0.90;1.00;;;;;;5056621;28;20575;-76
2021/01/25 01:17:47;;;;;;;1.90;1.40;;;0.80;1.00;;;;;;5051376;28;20726;-75
2021/01/25 01:20:15;;;;;;;1.77;1.67;;;0.60;1.00;;;;;;5056945;28;20258;-75
2021/01/25 01:22:45;;;;;;;1.58;1.48;;;0.70;1.00;;;;;;5053178;28;20208;-76
2021/01/25 01:25:13;;;;;;;1.85;1.30;;;0.70;1.00;;;;;;5060474;28;20239;-75
2021/01/25 01:27:40;;;;;;;2.28;1.60;;;1.00;1.00;;;;;;5063638;28;20215;-75
2021/01/25 01:30:08;;;;;;;2.13;1.40;;;0.90;1.00;;;;;;5054362;28;20217;-75
2021/01/25 01:32:37;;;;;;;2.22;1.42;;;1.00;1.00;;;;;;5056226;28;20212;-76
2021/01/25 01:35:06;;;;;;;2.50;1.48;;;1.10;1.00;;;;;;5045431;28;20216;-77
2021/01/25 01:37:34;;;;;;;1.52;1.30;;;1.40;1.00;;;;;;5049944;28;20237;-75
2021/01/25 01:40:03;;;;;;;3.83;1.50;;;1.50;1.00;;;;;;5050213;28;20213;-75
2021/01/25 01:42:31;;;;;;;1.85;1.40;;;1.60;1.00;;;;;;5064177;28;20223;-75
2021/01/25 01:45:01;;;;;;;2.92;1.55;;;1.70;1.00;;;;;;5053416;28;20669;-76
2021/01/25 01:47:29;;;;;;;2.28;1.98;;;1.80;1.00;;;;;;5049149;28;20221;-76
2021/01/25 01:49:58;;;;;;;3.25;1.50;;;1.90;1.00;;;;;;5050707;28;20210;-77
2021/01/25 01:52:25;;;;;;;1.58;1.30;;;1.90;1.00;;;;;;5052476;28;20687;-76
2021/01/25 01:54:57;;;;;;;2.75;1.65;;;1.80;1.00;;;;;;5049358;28;20200;-75
2021/01/25 01:57:25;;;;;;;1.40;1.30;;;1.90;1.00;;;;;;5047521;28;20235;-76
2021/01/25 01:59:52;;;;;;;2.13;1.70;;;1.90;1.00;;;;;;5043775;28;20212;-75
2021/01/25 02:02:19;;;;;;;1.80;1.70;;;1.70;1.00;;;;;;5049375;28;20642;-76
2021/01/25 02:04:47;;;;;;;2.95;2.75;;;1.60;1.00;;;;;;5049697;28;20212;-75
2021/01/25 02:07:17;;;;;;;1.88;1.60;;;1.50;1.00;;;;;;5064231;28;20228;-76
2021/01/25 02:09:46;;;;;;;2.25;2.00;;;1.60;1.00;;;;;;5048300;28;20201;-75
2021/01/25 02:12:15;;;;;;;3.15;1.90;;;1.60;1.00;;;;;;5051086;28;20262;-75
2021/01/25 02:14:43;;;;;;;2.40;2.20;;;1.50;1.00;;;;;;5048610;28;20216;-76
2021/01/25 02:17:13;;;;;;;2.22;2.03;;;1.50;1.00;;;;;;5042619;28;20228;-75
2021/01/25 02:19:48;;;;;;;2.17;1.98;;;1.50;1.00;;;;;;5065463;28;20702;-76
2021/01/25 02:22:48;;;;;;;2.65;2.45;;;1.50;1.00;;;;;;5047767;28;20592;-75
2021/01/25 02:25:18;;;;;;;2.67;2.10;;;1.60;1.00;;;;;;5046659;28;20635;-74
2021/01/25 02:27:47;;;;;;;4.32;1.83;;;1.70;1.00;;;;;;5048892;28;20232;-76
2021/01/25 02:30:16;;;;;;;2.33;2.05;;;1.70;1.00;;;;;;5060409;28;20203;-75
2021/01/25 02:32:44;;;;;;;2.38;2.17;;;1.70;1.00;;;;;;5055738;28;20254;-75
2021/01/25 02:35:15;;;;;;;2.38;2.17;;;1.80;1.00;;;;;;5058003;28;20287;-75
2021/01/25 02:37:44;;;;;;;2.60;2.00;;;1.90;1.00;;;;;;5048964;28;20220;-75
2021/01/25 02:40:14;;;;;;;2.50;2.30;;;1.70;1.00;;;;;;5054836;28;20212;-75
2021/01/25 02:42:43;;;;;;;6.10;2.60;;;1.80;1.00;;;;;;5056179;28;20899;-76
2021/01/25 02:45:12;;;;;;;3.90;2.45;;;1.70;1.00;;;;;;5065522;28;20222;-75
2021/01/25 02:47:39;;;;;;;2.53;2.17;;;1.50;1.00;;;;;;5055461;28;20227;-75
2021/01/25 02:50:08;;;;;;;3.40;2.17;;;1.50;1.00;;;;;;5055460;28;20302;-75
2021/01/25 02:52:35;;;;;;;2.50;2.30;;;1.40;1.00;;;;;;5058110;28;20315;-75
2021/01/25 02:55:03;;;;;;;2.88;2.40;;;1.30;10.20;;;;;;5056854;28;20204;-75
2021/01/25 02:57:34;;;;;;;2.95;2.75;;;1.30;99.90;;;;;;5058241;28;20239;-75
2021/01/25 03:00:02;;;;;;;3.55;2.92;;;1.40;99.90;;;;;;5054663;28;20208;-75
2021/01/25 03:02:32;;;;;;;2.58;2.38;;;1.40;99.90;;;;;;5047497;28;20211;-75
2021/01/25 03:05:01;;;;;;;3.10;2.78;;;1.30;1.00;;;;;;5047694;28;20268;-74
2021/01/25 03:07:28;;;;;;;3.28;2.58;;;1.00;1.00;;;;;;5040411;28;20283;-75
2021/01/25 03:09:59;;;;;;;3.25;2.70;;;1.10;99.90;;;;;;5051052;28;20223;-75
2021/01/25 03:12:27;;;;;;;4.30;2.28;;;1.30;99.90;;;;;;5037246;28;20213;-75
2021/01/25 03:14:54;;;;;;;2.47;1.98;;;1.20;1.00;;;;;;5061622;28;20210;-75
2021/01/25 03:17:22;;;;;;;2.42;1.90;;;1.10;1.00;;;;;;5057907;28;20272;-76
2021/01/25 03:19:50;;;;;;;3.45;2.58;;;0.90;1.00;;;;;;5053720;28;20254;-75
2021/01/25 03:22:17;;;;;;;12.60;8.30;;;0.80;1.00;;;;;;5028102;28;20213;-75
2021/01/25 03:24:44;;;;;;;3.60;3.25;;;0.70;83.70;;;;;;5048845;28;20238;-75
2021/01/25 03:27:11;;;;;;;3.67;2.88;;;0.50;70.10;;;;;;5047966;28;20282;-75
2021/01/25 03:29:38;;;;;;;3.45;3.15;;;0.70;99.90;;;;;;5053686;28;20196;-75
2021/01/25 03:32:05;;;;;;;3.58;3.10;;;0.60;99.90;;;;;;5051344;28;20282;-75
2021/01/25 03:34:33;;;;;;;3.22;2.95;;;0.70;99.90;;;;;;5052131;28;20707;-75
2021/01/25 03:37:01;;;;;;;3.70;2.78;;;0.80;99.90;;;;;;5042581;28;20255;-75
2021/01/25 03:39:28;;;;;;;2.80;2.40;;;0.70;1.00;;;;;;5054852;28;20289;-76
2021/01/25 03:41:55;;;;;;;3.40;2.63;;;0.70;1.00;;;;;;5065745;28;20208;-75
2021/01/25 03:44:22;;;;;;;4.22;2.20;;;0.70;1.00;;;;;;5057216;28;20204;-75
2021/01/25 03:46:49;;;;;;;2.55;2.00;;;0.80;1.00;;;;;;5046789;28;20296;-75
2021/01/25 03:49:16;;;;;;;2.50;2.10;;;0.80;1.00;;;;;;5051924;28;20308;-76
2021/01/25 03:51:44;;;;;;;2.42;2.22;;;0.80;1.00;;;;;;5048744;28;20209;-75
2021/01/25 03:54:12;;;;;;;1.90;1.80;;;0.80;1.00;;;;;;5052231;28;20888;-75
2021/01/25 03:56:39;;;;;;;2.03;1.92;;;0.80;1.00;;;;;;5047450;28;20727;-75
2021/01/25 03:59:07;;;;;;;1.55;1.45;;;0.80;1.00;;;;;;5057567;28;20271;-75
2021/01/25 04:01:35;;;;;;;2.40;2.20;;;0.60;1.00;;;;;;5054677;28;20205;-75
2021/01/25 04:04:02;;;;;;;2.15;1.92;;;0.70;1.00;;;;;;5047629;28;20213;-75
2021/01/25 04:06:29;;;;;;;1.75;1.63;;;0.80;1.00;;;;;;5045383;28;20240;-75
2021/01/25 04:08:57;;;;;;;2.00;1.90;;;0.90;1.00;;;;;;5048697;28;20205;-75
2021/01/25 04:11:25;;;;;;;2.00;1.90;;;0.70;1.00;;;;;;5047246;28;20350;-76
2021/01/25 04:13:52;;;;;;;1.73;1.63;;;0.60;1.00;;;;;;5048981;28;20333;-75
2021/01/25 04:16:19;;;;;;;2.67;1.70;;;0.50;1.00;;;;;;5053212;28;20231;-75
2021/01/25 04:18:47;;;;;;;2.38;2.20;;;0.60;1.00;;;;;;5047773;28;20722;-75
2021/01/25 04:21:14;;;;;;;1.98;1.70;;;0.70;1.00;;;;;;5050510;28;20205;-75
2021/01/25 04:23:41;;;;;;;2.30;2.10;;;0.70;1.00;;;;;;5052138;28;20210;-75
2021/01/25 04:26:10;;;;;;;2.30;1.80;;;0.80;1.00;;;;;;5047565;28;20232;-75
2021/01/25 04:28:38;;;;;;;1.90;1.70;;;0.90;1.00;;;;;;5033107;28;20205;-75
2021/01/25 04:31:05;;;;;;;2.72;2.53;;;0.70;1.00;;;;;;5047764;28;20266;-75
2021/01/25 04:33:32;;;;;;;2.47;2.35;;;0.70;1.00;;;;;;5049239;28;20261;-74
2021/01/25 04:36:00;;;;;;;2.25;2.00;;;0.90;1.00;;;;;;5056326;28;20228;-75
2021/01/25 04:38:27;;;;;;;2.40;2.20;;;0.90;1.00;;;;;;5062487;28;20234;-75
2021/01/25 04:40:54;;;;;;;3.30;2.22;;;0.90;1.00;;;;;;5050254;28;20656;-75
2021/01/25 04:43:21;;;;;;;5.10;2.20;;;0.90;1.00;;;;;;5056285;28;20610;-75
2021/01/25 04:45:49;;;;;;;3.30;1.50;;;0.90;1.00;;;;;;5046532;28;20269;-75
2021/01/25 04:48:17;;;;;;;2.50;2.00;;;0.90;1.00;;;;;;5049196;28;20261;-76
2021/01/25 04:50:44;;;;;;;2.58;2.05;;;0.80;1.00;;;;;;5047221;28;20573;-76
2021/01/25 04:53:12;;;;;;;2.50;2.10;;;0.90;1.00;;;;;;5052644;28;20213;-75
2021/01/25 04:55:39;;;;;;;2.30;1.90;;;1.00;1.00;;;;;;5047370;28;20212;-75
2021/01/25 04:58:07;;;;;;;3.72;2.28;;;1.00;1.00;;;;;;5061526;28;20200;-75
2021/01/25 05:00:34;;;;;;;2.40;1.95;;;0.90;1.00;;;;;;5046862;28;20236;-75
2021/01/25 05:03:02;;;;;;;2.28;2.05;;;0.90;1.00;;;;;;5051432;28;21834;-76
2021/01/25 05:05:30;;;;;;;2.75;2.55;;;0.80;1.00;;;;;;5049423;28;20680;-74
2021/01/25 05:07:57;;;;;;;3.00;2.50;;;0.80;1.00;;;;;;5052529;28;20208;-75
2021/01/25 05:10:24;;;;;;;3.53;2.35;;;0.80;1.00;;;;;;5045915;28;20210;-75
2021/01/25 05:12:51;;;;;;;2.55;2.35;;;0.90;1.00;;;;;;5061458;28;20287;-76
2021/01/25 05:15:26;;;;;;;2.20;2.10;;;0.90;1.00;;;;;;5053465;28;20208;-76
2021/01/25 05:17:54;;;;;;;1.80;1.70;;;0.90;1.00;;;;;;5052740;28;20326;-75
2021/01/25 05:20:27;;;;;;;3.65;2.25;;;1.10;1.00;;;;;;5048200;28;20241;-75
2021/01/25 05:22:55;;;;;;;2.70;2.35;;;1.20;1.00;;;;;;5059643;28;20265;-74
2021/01/25 05:25:25;;;;;;;2.13;2.00;;;1.30;1.00;;;;;;5050853;28;20203;-75
2021/01/25 05:27:52;;;;;;;2.40;2.20;;;1.30;1.00;;;;;;5047208;28;20239;-76
2021/01/25 05:30:20;;;;;;;3.58;2.40;;;1.10;1.00;;;;;;5050420;28;20907;-76
2021/01/25 05:32:48;;;;;;;3.35;2.13;;;1.20;1.00;;;;;;5048561;28;20474;-77
2021/01/25 05:35:18;;;;;;;2.70;2.47;;;1.30;1.00;;;;;;5053451;28;20206;-76
2021/01/25 05:37:52;;;;;;;2.22;2.03;;;1.20;1.00;;;;;;5054414;28;20357;-76
2021/01/25 05:40:22;;;;;;;2.58;2.05;;;1.30;1.00;;;;;;5059768;28;20223;-76
2021/01/25 05:42:50;;;;;;;2.38;2.17;;;1.50;1.00;;;;;;5064616;28;20204;-76
2021/01/25 05:45:19;;;;;;;1.88;1.77;;;1.40;1.00;;;;;;5061949;28;20211;-75
2021/01/25 05:47:49;;;;;;;1.95;1.85;;;1.40;1.00;;;;;;5050706;28;20291;-75
2021/01/25 05:50:27;;;;;;;2.85;2.28;;;1.30;1.00;;;;;;5054462;28;20343;-75
2021/01/25 05:52:57;;;;;;;2.80;2.55;;;1.20;1.00;;;;;;5052564;28;20204;-74
2021/01/25 05:55:25;;;;;;;3.53;1.80;;;1.30;1.00;;;;;;5060155;28;20203;-75
2021/01/25 05:57:52;;;;;;;3.25;3.05;;;1.40;1.00;;;;;;5044216;28;20233;-74
2021/01/25 06:00:20;;;;;;;2.90;2.60;;;1.50;1.00;;;;;;5034090;28;20854;-76
2021/01/25 06:02:49;;;;;;;3.38;2.80;;;1.40;1.00;;;;;;5050410;28;20213;-75
2021/01/25 06:05:29;;;;;;;2.33;2.13;;;1.50;1.00;;;;;;5045824;28;20223;-73
2021/01/25 06:08:02;;;;;;;7.05;5.43;;;1.50;1.00;;;;;;5044698;28;20226;-74
2021/01/25 06:10:37;;;;;;;3.92;3.22;;;1.40;1.00;;;;;;5039667;28;20282;-74
2021/01/25 06:13:10;;;;;;;4.60;3.92;;;1.30;1.00;;;;;;5042715;28;20705;-76
2021/01/25 06:15:40;;;;;;;4.45;3.10;;;1.30;1.00;;;;;;5045482;28;20203;-75
2021/01/25 06:18:08;;;;;;;2.28;2.03;;;1.20;1.00;;;;;;5046252;28;20217;-74
2021/01/25 06:20:37;;;;;;;2.70;1.88;;;1.30;1.00;;;;;;5048216;28;20298;-75
2021/01/25 06:23:05;;;;;;;3.47;2.92;;;1.20;1.00;;;;;;5054841;28;20205;-74
2021/01/25 06:25:32;;;;;;;2.83;2.63;;;1.30;1.00;;;;;;5045843;28;20219;-73
2021/01/25 06:28:02;;;;;;;6.30;2.40;;;1.40;1.00;;;;;;5044500;28;20209;-75
2021/01/25 06:30:31;;;;;;;3.17;2.80;;;1.50;1.00;;;;;;5041793;28;20196;-74
2021/01/25 06:32:59;;;;;;;4.50;2.95;;;1.60;1.00;;;;;;5042919;28;20205;-74
2021/01/25 06:35:31;;;;;;;4.00;3.25;;;1.60;1.00;;;;;;5040832;28;20221;-75
2021/01/25 06:37:58;;;;;;;8.77;3.22;;;1.60;1.00;;;;;;5041766;28;20215;-74
2021/01/25 06:40:29;;;;;;;6.70;3.53;;;1.70;1.00;;;;;;5036182;28;20235;-75
2021/01/25 06:42:57;;;;;;;5.22;4.20;;;1.70;1.00;;;;;;5034465;28;20258;-76
2021/01/25 06:45:25;;;;;;;10.70;4.40;;;1.80;1.00;;;;;;5033588;28;20646;-75
2021/01/25 06:47:55;;;;;;;5.65;3.65;;;1.90;99.90;;;;;;5037556;28;20236;-75
2021/01/25 06:50:25;;;;;;;5.28;3.95;;;1.90;99.90;;;;;;5045733;28;20269;-73
2021/01/25 06:52:53;;;;;;;5.88;4.10;;;1.90;99.90;;;;;;5041364;28;20202;-74
2021/01/25 06:55:22;;;;;;;6.60;4.43;;;1.90;99.90;;;;;;5042837;28;20201;-74
2021/01/25 06:57:51;;;;;;;4.50;3.78;;;1.90;99.90;;;;;;5040851;28;20708;-74
2021/01/25 07:00:19;;;;;;;4.03;3.50;;;1.80;99.90;;;;;;5042944;28;21058;-74
2021/01/25 07:02:55;;;;;;;4.00;3.38;;;1.70;1.00;;;;;;5045872;28;20235;-75
2021/01/25 07:05:26;;;;;;;5.22;3.70;;;1.70;1.00;;;;;;5039971;28;20279;-75
2021/01/25 07:08:19;;;;;;;3.33;3.00;;;1.70;1.00;;;;;;5045707;28;20239;-74
2021/01/25 07:10:53;;;;;;;4.00;3.20;;;1.60;1.00;;;;;;5041008;28;20229;-73
2021/01/25 07:13:23;;;;;;;4.13;3.70;;;1.70;1.00;;;;;;5042101;28;20211;-74
2021/01/25 07:15:51;;;;;;;4.22;3.30;;;1.80;1.00;;;;;;5033670;28;20234;-74
2021/01/25 07:18:19;;;;;;;6.32;3.78;;;1.80;1.00;;;;;;5040344;28;20291;-74
2021/01/25 07:20:47;;;;;;;3.97;3.38;;;1.80;1.00;;;;;;5039001;28;20216;-72
2021/01/25 07:23:18;;;;;;;9.80;3.85;;;1.90;1.00;;;;;;5035185;28;20204;-73
2021/01/25 07:25:53;;;;;;;4.05;3.47;;;1.80;1.00;;;;;;5035544;28;20218;-74
2021/01/25 07:28:22;;;;;;;3.83;3.25;;;1.70;1.00;;;;;;5038361;28;20700;-74
2021/01/25 07:30:49;;;;;;;4.78;3.30;;;1.60;1.00;;;;;;5036747;28;20212;-74
2021/01/25 07:33:17;;;;;;;2.75;2.55;;;1.70;1.00;;;;;;5041191;28;20236;-74
2021/01/25 07:35:45;;;;;;;3.05;2.75;;;1.80;1.00;;;;;;5039842;28;20214;-73
2021/01/25 07:38:13;;;;;;;4.20;3.72;;;1.90;1.00;;;;;;5033673;28;20216;-73
2021/01/25 07:40:40;;;;;;;5.70;2.80;;;2.00;1.00;;;;;;5044175;28;20222;-73
2021/01/25 07:43:07;;;;;;;2.47;2.38;;;2.10;99.90;;;;;;5043048;28;20219;-74
2021/01/25 07:45:36;;;;;;;2.55;2.08;;;1.90;99.90;;;;;;5026323;28;20214;-74
2021/01/25 07:48:03;;;;;;;2.35;2.15;;;1.70;1.00;;;;;;5039595;28;20300;-73
2021/01/25 07:50:31;;;;;;;4.35;3.00;;;1.70;1.00;;;;;;5043120;28;20196;-73
2021/01/25 07:52:59;;;;;;;3.58;2.83;;;1.70;1.00;;;;;;5043389;28;20208;-74
2021/01/25 07:55:26;;;;;;;2.88;2.67;;;1.70;1.00;;;;;;5036251;28;20212;-72
2021/01/25 07:57:55;;;;;;;3.28;2.97;;;1.70;1.00;;;;;;5045314;28;20262;-74
2021/01/25 08:00:23;;;;;;;3.13;2.67;;;1.70;1.00;;;;;;5041118;28;20231;-73
2021/01/25 08:02:59;;;;;;;2.78;2.17;;;1.70;1.00;;;;;;5041166;28;20550;-74
2021/01/25 08:05:28;;;;;;;4.40;2.40;;;1.90;1.00;;;;;;5045196;28;20207;-75
2021/01/25 08:07:56;;;;;;;2.35;2.10;;;2.00;1.00;;;;;;5030188;28;20735;-73
2021/01/25 08:10:24;;;;;;;2.58;2.38;;;2.00;1.00;;;;;;5041647;28;20777;-75
2021/01/25 08:12:52;;;;;;;2.45;2.13;;;2.00;1.00;;;;;;5035862;28;20268;-73
2021/01/25 08:15:24;;;;;;;2.50;2.30;;;1.90;1.00;;;;;;5028682;28;20272;-74
2021/01/25 08:17:57;;;;;;;1.95;1.73;;;2.00;1.00;;;;;;5037762;28;20228;-74
2021/01/25 08:20:26;;;;;;;2.65;2.22;;;2.10;1.00;;;;;;5040805;28;20291;-74
2021/01/25 08:22:58;;;;;;;8.07;2.83;;;2.20;1.00;;;;;;5040315;28;20253;-73
2021/01/25 08:25:28;;;;;;;1.85;1.75;;;2.20;1.00;;;;;;5044706;28;20295;-74
2021/01/25 08:28:02;;;;;;;3.17;2.40;;;2.30;1.00;;;;;;5036058;28;20217;-73
2021/01/25 08:30:36;;;;;;;3.22;2.88;;;2.50;1.00;;;;;;5043042;28;20204;-73
2021/01/25 08:33:06;;;;;;;3.05;2.78;;;2.60;1.00;;;;;;5036383;28;20293;-74
2021/01/25 08:35:37;;;;;;;3.80;2.35;;;2.70;99.90;;;;;;5040733;28;20204;-74
2021/01/25 08:38:22;;;;;;;3.17;2.88;;;2.70;99.90;;;;;;5042926;28;20208;-73
2021/01/25 08:40:49;;;;;;;2.90;1.98;;;2.60;99.90;;;;;;5039642;28;20225;-73
2021/01/25 08:43:24;;;;;;;3.80;2.13;;;2.60;99.90;;;;;;5036643;28;20643;-73
2021/01/25 08:45:53;;;;;;;2.90;2.38;;;2.60;99.90;;;;;;5043035;28;20239;-73
2021/01/25 08:48:30;;;;;;;2.72;2.53;;;2.50;99.90;;;;;;5040749;28;20208;-73
2021/01/25 08:51:08;;;;;;;4.22;2.00;;;2.40;99.90;;;;;;5044022;28;20836;-74
2021/01/25 08:53:35;;;;;;;2.35;2.15;;;2.20;1.00;;;;;;5039142;28;20680;-74
2021/01/25 08:56:12;;;;;;;5.15;2.65;;;2.10;1.00;;;;;;5040714;28;20484;-72
2021/01/25 08:58:40;;;;;;;2.88;2.13;;;2.20;1.00;;;;;;5035135;28;20675;-73
2021/01/25 09:01:16;;;;;;;2.58;2.38;;;2.30;1.00;;;;;;5041682;28;20220;-73
2021/01/25 09:03:44;;;;;;;2.83;2.28;;;2.40;1.00;;;;;;5045985;28;20664;-74
2021/01/25 09:06:12;;;;;;;2.70;2.50;;;2.60;1.00;;;;;;5036963;28;20250;-74
2021/01/25 09:08:40;;;;;;;3.30;2.63;;;2.80;1.00;;;;;;5049043;28;20200;-75
2021/01/25 09:11:08;;;;;;;2.60;2.10;;;2.90;1.00;;;;;;5054729;28;20559;-73
2021/01/25 09:13:35;;;;;;;3.55;2.20;;;3.10;99.90;;;;;;5054944;28;20226;-73
2021/01/25 09:16:02;;;;;;;2.65;2.05;;;3.20;99.90;;;;;;5040643;28;20237;-74
2021/01/25 09:18:30;;;;;;;2.13;1.90;;;3.20;99.90;;;;;;5038332;28;20204;-74
2021/01/25 09:20:58;;;;;;;2.55;2.10;;;3.10;1.00;;;;;;5043807;28;20873;-74
2021/01/25 09:23:25;;;;;;;1.85;1.60;;;3.20;99.90;;;;;;5052830;28;20212;-75
2021/01/25 09:25:52;;;;;;;3.45;1.55;;;3.30;99.90;;;;;;5048743;28;20228;-74
2021/01/25 09:28:19;;;;;;;2.25;1.85;;;3.50;99.90;;;;;;5046168;28;20214;-73
2021/01/25 09:30:47;;;;;;;1.70;1.58;;;3.30;1.00;;;;;;5037724;28;20265;-73
2021/01/25 09:33:14;;;;;;;3.47;2.10;;;3.30;99.90;;;;;;5040596;28;20256;-73
2021/01/25 09:35:42;;;;;;;5.03;2.20;;;3.30;99.90;;;;;;5043747;28;20212;-75
2021/01/25 09:38:09;;;;;;;4.45;2.78;;;3.20;76.70;;;;;;5048497;28;20207;-75
2021/01/25 09:40:36;;;;;;;4.80;2.88;;;3.40;99.90;;;;;;5035736;28;20233;-74
2021/01/25 09:43:03;;;;;;;3.28;2.38;;;3.50;70.90;;;;;;5040114;28;20215;-74
2021/01/25 09:45:31;;;;;;;5.38;1.85;;;3.70;1.00;;;;;;5045282;28;20214;-74
2021/01/25 09:48:00;;;;;;;4.57;2.10;;;3.70;99.90;;;;;;5045337;28;20600;-73
2021/01/25 09:50:28;;;;;;;5.07;2.45;;;3.70;99.90;;;;;;5038414;28;20204;-74
2021/01/25 09:52:56;;;;;;;2.70;2.50;;;3.60;99.90;;;;;;5040651;28;20233;-73
2021/01/25 09:55:23;;;;;;;2.85;1.85;;;3.60;1.00;;;;;;5037865;28;20585;-73
2021/01/25 09:57:50;;;;;;;3.58;1.98;;;3.80;1.00;;;;;;5045461;28;20359;-73
2021/01/25 10:00:18;;;;;;;1.95;1.52;;;3.90;1.00;;;;;;5044254;28;20696;-74
2021/01/25 10:02:46;;;;;;;2.17;1.75;;;4.00;99.90;;;;;;5030155;28;20217;-76
2021/01/25 10:05:15;;;;;;;2.45;1.83;;;4.20;99.90;;;;;;5049467;28;20298;-75
2021/01/25 10:07:42;;;;;;;3.90;2.22;;;4.10;1.00;;;;;;5050434;28;20245;-75
2021/01/25 10:10:13;;;;;;;2.30;1.73;;;4.30;99.90;;;;;;5035967;28;20761;-73
2021/01/25 10:12:40;;;;;;;3.22;2.03;;;4.10;1.00;;;;;;5044119;28;20221;-75
2021/01/25 10:15:09;;;;;;;2.20;2.00;;;4.10;99.90;;;;;;5032759;28;20258;-74
2021/01/25 10:17:37;;;;;;;3.90;2.15;;;4.00;35.30;;;;;;5046411;28;20260;-73
2021/01/25 10:20:06;;;;;;;2.30;2.10;;;4.00;99.90;;;;;;5041748;28;20249;-73
2021/01/25 10:22:33;;;;;;;4.88;2.85;;;3.60;99.90;;;;;;5042813;28;20221;-75
2021/01/25 10:25:01;;;;;;;2.28;2.17;;;3.60;1.00;;;;;;5040011;28;20210;-74
2021/01/25 10:27:30;;;;;;;3.78;2.42;;;3.30;99.90;;;;;;5041524;28;20805;-76
2021/01/25 10:29:57;;;;;;;2.75;1.90;;;3.30;1.00;;;;;;5043334;28;20229;-74
2021/01/25 10:32:25;;;;;;;2.40;2.00;;;3.30;1.00;;;;;;5042651;28;20665;-75
2021/01/25 10:34:52;;;;;;;6.20;2.92;;;3.40;1.00;;;;;;5046878;28;20279;-74
2021/01/25 10:37:20;;;;;;;3.60;3.00;;;3.60;99.90;;;;;;5038235;28;20240;-75
2021/01/25 10:39:47;;;;;;;3.60;2.63;;;3.70;99.90;;;;;;5034313;28;20579;-74
2021/01/25 10:42:14;;;;;;;3.40;3.10;;;3.70;1.00;;;;;;5034988;28;20217;-75
2021/01/25 10:44:42;;;;;;;2.70;2.50;;;3.70;1.00;;;;;;5038446;28;20303;-74
2021/01/25 10:47:13;;;;;;;3.20;2.90;;;3.70;1.00;;;;;;5032203;28;20928;-74
2021/01/25 10:49:40;;;;;;;3.20;2.70;;;3.60;99.90;;;;;;5034453;28;20225;-74
2021/01/25 10:52:09;;;;;;;3.55;2.38;;;3.60;99.90;;;;;;5041961;28;20800;-74
2021/01/25 10:54:36;;;;;;;3.42;3.13;;;3.70;99.90;;;;;;5037994;28;20604;-76
2021/01/25 10:57:05;;;;;;;2.70;2.50;;;3.80;63.80;;;;;;5043205;28;20230;-75
2021/01/25 10:59:32;;;;;;;4.25;3.20;;;3.90;1.00;;;;;;5040162;28;20756;-75
2021/01/25 11:02:00;;;;;;;3.67;3.35;;;3.80;1.00;;;;;;5043976;28;20214;-73
2021/01/25 11:04:28;;;;;;;6.60;3.17;;;3.90;1.00;;;;;;5040765;28;20292;-74
2021/01/25 11:06:55;;;;;;;5.85;3.50;;;4.00;64.10;;;;;;5041755;28;20237;-76
2021/01/25 11:09:23;;;;;;;3.55;3.25;;;4.20;1.00;;;;;;5044453;28;20220;-74
2021/01/25 11:11:50;;;;;;;3.55;2.80;;;4.30;1.00;;;;;;5039318;28;20271;-74
2021/01/25 11:14:18;;;;;;;4.05;3.75;;;4.40;99.90;;;;;;5036697;28;20250;-76
2021/01/25 11:16:45;;;;;;;3.13;2.80;;;4.60;1.00;;;;;;5036377;28;20231;-76
2021/01/25 11:19:13;;;;;;;3.08;2.78;;;4.70;99.90;;;;;;5046518;28;20209;-77
2021/01/25 11:21:40;;;;;;;3.05;2.70;;;4.70;99.90;;;;;;5043693;28;20481;-77
2021/01/25 11:24:08;;;;;;;6.15;3.15;;;4.90;1.00;;;;;;5045930;28;20219;-75
2021/01/25 11:26:38;;;;;;;2.85;2.65;;;5.00;99.90;;;;;;5040767;28;20719;-73
2021/01/25 11:29:05;;;;;;;4.70;2.33;;;5.00;63.80;;;;;;5044852;28;20206;-75
2021/01/25 11:31:33;;;;;;;2.97;2.72;;;5.20;99.90;;;;;;5037967;28;20256;-74
2021/01/25 11:34:00;;;;;;;3.13;2.38;;;5.30;99.90;;;;;;5037775;28;20267;-74
2021/01/25 11:36:28;;;;;;;2.30;2.20;;;5.40;99.90;;;;;;5044219;28;20284;-75
2021/01/25 11:38:55;;;;;;;2.45;2.25;;;5.40;99.90;;;;;;5043304;28;20870;-73
2021/01/25 11:41:22;;;;;;;2.38;2.17;;;5.40;99.90;;;;;;5040269;28;20239;-75
2021/01/25 11:43:50;;;;;;;2.40;2.20;;;5.20;99.90;;;;;;5036100;28;20211;-73
2021/01/25 11:46:17;;;;;;;2.55;2.35;;;5.30;99.90;;;;;;5030234;28;20237;-72
2021/01/25 11:48:44;;;;;;;2.22;2.03;;;5.40;99.90;;;;;;5032470;28;20214;-74
2021/01/25 11:51:11;;;;;;;2.17;1.98;;;5.30;99.90;;;;;;5039519;28;20210;-74
2021/01/25 11:53:39;;;;;;;2.00;1.80;;;5.30;99.90;;;;;;5043111;28;20215;-75
2021/01/25 11:56:07;;;;;;;2.40;2.03;;;5.40;99.90;;;;;;5039344;28;20246;-75
2021/01/25 11:58:34;;;;;;;1.92;1.83;;;5.30;99.90;;;;;;5041345;28;20235;-76
2021/01/25 12:01:01;;;;;;;1.98;1.80;;;5.20;1.00;;;;;;5043447;28;20235;-75
2021/01/25 12:03:28;;;;;;;1.92;1.83;;;5.20;65.30;;;;;;5035723;28;20226;-74
2021/01/25 12:05:55;;;;;;;2.30;1.70;;;5.20;72.70;;;;;;5037533;28;20229;-75
2021/01/25 12:08:23;;;;;;;1.67;1.58;;;5.10;99.90;;;;;;5041284;28;20222;-75
2021/01/25 12:10:51;;;;;;;1.98;1.85;;;5.00;1.00;;;;;;5038654;28;20205;-74
2021/01/25 12:13:18;;;;;;;2.30;2.10;;;5.10;99.90;;;;;;5037807;28;20201;-74
2021/01/25 12:15:45;;;;;;;1.63;1.52;;;5.10;1.00;;;;;;5044575;28;20266;-73
2021/01/25 12:18:13;;;;;;;2.22;1.45;;;5.00;40.50;;;;;;5028436;28;20205;-76
2021/01/25 12:20:40;;;;;;;1.70;1.45;;;5.00;99.90;;;;;;5038173;28;20247;-75
2021/01/25 12:23:07;;;;;;;2.58;1.55;;;4.90;1.00;;;;;;5047597;28;20256;-74
2021/01/25 12:25:35;;;;;;;2.13;1.92;;;4.90;27.60;;;;;;5046713;28;20207;-73
2021/01/25 12:28:03;;;;;;;3.83;1.70;;;4.90;36.00;;;;;;5043841;28;20831;-72
2021/01/25 12:30:30;;;;;;;2.17;1.60;;;4.80;35.90;;;;;;5039989;28;20289;-72
2021/01/25 12:32:58;;;;;;;2.15;1.33;;;4.90;99.90;;;;;;5043598;28;20660;-73
2021/01/25 12:35:26;;;;;;;2.03;1.33;;;5.10;1.00;;;;;;5046161;28;20322;-75
2021/01/25 12:37:55;;;;;;;1.55;1.30;;;5.40;99.90;;;;;;5046915;28;20334;-74
2021/01/25 12:40:24;;;;;;;1.10;1.00;;;5.40;99.90;;;;;;5042556;28;20250;-75
2021/01/25 12:42:52;;;;;;;1.20;0.90;;;5.40;1.00;;;;;;5042922;28;20220;-74
2021/01/25 12:45:23;;;;;;;1.30;1.20;;;5.30;99.90;;;;;;5042432;28;20266;-75
2021/01/25 12:47:50;;;;;;;1.20;1.10;;;5.40;99.90;;;;;;5052284;28;20694;-73
2021/01/25 12:50:18;;;;;;;0.90;0.90;;;5.40;45.40;;;;;;5047686;28;20216;-76
2021/01/25 12:52:46;;;;;;;0.80;0.73;;;5.60;1.00;;;;;;5052348;28;20239;-76
2021/01/25 12:55:13;;;;;;;0.90;0.90;;;5.40;1.00;;;;;;5042404;28;20470;-73
2021/01/25 12:57:42;;;;;;;1.00;0.80;;;5.50;82.30;;;;;;5048790;28;20234;-72
2021/01/25 13:00:13;;;;;;;0.60;0.60;;;5.40;1.00;;;;;;5041856;28;20697;-75
2021/01/25 13:02:41;;;;;;;0.88;0.70;;;5.60;1.00;;;;;;5039608;28;20223;-74
2021/01/25 13:05:11;;;;;;;3.63;0.88;;;5.60;99.90;;;;;;5034983;28;20302;-75
2021/01/25 13:07:38;;;;;;;0.70;0.70;;;5.50;99.90;;;;;;5043012;28;20246;-75
2021/01/25 13:10:07;;;;;;;1.58;0.80;;;5.40;99.90;;;;;;5040529;28;20477;-74
2021/01/25 13:12:36;;;;;;;0.93;0.60;;;5.30;99.90;;;;;;5043571;28;20280;-76